עמוד ראשי
METAR-TAF:

METAR-TAF

שדות תעופה :

טנגשימה, יפן

קו רוחב: 30-33N, קו אורך: 130-57E, גובה: 92מטר

תצפית מזג אוויר נוכחית

הדו"ח נערך לפני 13 שעות ו 18דקות, בשעה 09:00 UTC
רוח 8קשר מכיוון דרום-מזרח, משתנה בין מזרח ו דרום/דרום-מזרח
טמפרטורת 28 צלסיוס
לחות 89%
לחץ 1008 hPa
ראות 10 קילומטר או יותר
מעט עננים בגובה 500רגל
עננים פזורים בגובה 1000רגל
עננים בינוניים

METAR: RJFG 240900Z 13008KT 090V160 9999 FEW005 SCT010 BKN/// 28/26 Q1008

זמן: 07:18 (22:18 UTC)


TAF: חסר

תצפיות ותחזיות מזג אוויר לגבי יותר מ- 4,000 שדות תעופה ברחבי העולם. דוחות METAR ו- TAF.

התחנות הזמינות מסומנות בנקודות צהובות ואדומות על גבי המפה.

העבר את העכבר לנקודה הצבעונית על מנת לראות את שם התחנה.

לאחר מכן, לחץ כדי לראות את תוכן ואת תחזיות מזג האוויר.

כדי לשנות את המפה: לחץ על הכפתורים הירוקים עם הפלוס השחור כדי להתקרב; על הכפתור הירוק עם המקף כדי להתרחק; או בחיצים הירוקים למפות סמוכות.


METAR-TAF: